Casa Grande Muni Information

FAA: CGZ - ICAO: KCGZ

Casa Grande Muni (Airport) Location

State Arizona
County Pinal
City Casa Grande
Casa Grande Muni (Airport) is 5 miles north of Casa Grande, AZ.
Latitude 32-57-17.6000N
Longitude 111-46-00.6000W
Elevation 1,464ft

Casa Grande Muni METARs

METAR KCGZ 262256Z AUTO 01006KT 10SM CLR 18/M06 A3007 RMK AO2 SLP182 T01831056
Altimeter 30.07"
Temperature 18.3°C (64.9°F)
Wind 10° at 6KT
Clouds Skies are clear.
Visibility 10.0mi
Time observed: 2022-01-26T22:56:00Z

Casa Grande Muni (Airport) Details

Status Operational
Activation N/A
Ownership Public
Usage Public
Chart PHOENIX
ATC on-site No
Beacon schedule sunset-sunrise
Beacon color clear green

Casa Grande Muni (Airport) Contacts

Owner CITY OF CASA GRANDE
Owner address CITY HALL 510 E. FLORENCE BLVD, CASA GRANDE, AZ 85222
Owner phone 520-421-8625
Manager DAVID REFFNER
Manager address 3225 N. LEAR AVE., CASA GRANDE, AZ 85122
Manager phone (520) 421-8625

Casa Grande Muni Radio Frequencies

Casa Grande Muni (Airport) Radio Frequencies

UNICOM 122.7
Common traffic advisory frequency (CTAF) 122.7